sensor_id;sensor_type;location;lat;lon;timestamp;pressure;altitude;pressure_sealevel;temperature;humidity
47883;BME280;37739;50.350;7.578;2023-01-26T00:00:54;100549.13;;;0.63;85.92
47883;BME280;37739;50.350;7.578;2023-01-26T00:03:22;100545.50;;;0.50;86.24
47883;BME280;37739;50.350;7.578;2023-01-26T00:05:48;100545.72;;;0.43;87.28
47883;BME280;37739;50.350;7.578;2023-01-26T00:08:13;100532.94;;;0.42;87.03
47883;BME280;37739;50.350;7.578;2023-01-26T00:10:43;100526.81;;;0.48;87.73
47883;BME280;37739;50.350;7.578;2023-01-26T00:13:18;100525.78;;;0.46;87.42
47883;BME280;37739;50.350;7.578;2023-01-26T00:15:49;100530.56;;;0.43;87.86
47883;BME280;37739;50.350;7.578;2023-01-26T00:18:14;100539.69;;;0.32;87.65
47883;BME280;37739;50.350;7.578;2023-01-26T00:20:42;100539.00;;;0.06;88.59
47883;BME280;37739;50.350;7.578;2023-01-26T00:23:07;100523.53;;;0.11;88.36
47883;BME280;37739;50.350;7.578;2023-01-26T00:25:32;100525.03;;;0.09;87.67
47883;BME280;37739;50.350;7.578;2023-01-26T00:28:00;100522.06;;;-0.14;88.43
47883;BME280;37739;50.350;7.578;2023-01-26T00:30:25;100519.69;;;-0.13;88.85
47883;BME280;37739;50.350;7.578;2023-01-26T00:32:53;100527.03;;;-0.25;88.69
47883;BME280;37739;50.350;7.578;2023-01-26T00:35:20;100523.78;;;-0.05;88.53
47883;BME280;37739;50.350;7.578;2023-01-26T00:37:46;100525.44;;;-0.05;88.72
47883;BME280;37739;50.350;7.578;2023-01-26T00:40:16;100516.56;;;-0.10;87.27
47883;BME280;37739;50.350;7.578;2023-01-26T00:42:46;100514.13;;;0.00;87.43
47883;BME280;37739;50.350;7.578;2023-01-26T00:45:11;100514.50;;;-0.14;87.08
47883;BME280;37739;50.350;7.578;2023-01-26T00:47:37;100512.19;;;-0.03;88.01
47883;BME280;37739;50.350;7.578;2023-01-26T00:50:05;100510.97;;;-0.16;86.76
47883;BME280;37739;50.350;7.578;2023-01-26T00:52:32;100513.19;;;-0.20;88.05
47883;BME280;37739;50.350;7.578;2023-01-26T00:54:58;100514.44;;;-0.25;87.47
47883;BME280;37739;50.350;7.578;2023-01-26T00:57:30;100514.13;;;-0.28;86.88
47883;BME280;37739;50.350;7.578;2023-01-26T00:59:55;100505.69;;;-0.28;87.67
47883;BME280;37739;50.350;7.578;2023-01-26T01:02:23;100506.03;;;-0.43;86.49
47883;BME280;37739;50.350;7.578;2023-01-26T01:04:51;100509.72;;;-0.30;86.10
47883;BME280;37739;50.350;7.578;2023-01-26T01:07:16;100514.09;;;-0.19;85.80
47883;BME280;37739;50.350;7.578;2023-01-26T01:09:44;100510.13;;;-0.26;86.24
47883;BME280;37739;50.350;7.578;2023-01-26T01:12:14;100505.38;;;-0.23;85.88
47883;BME280;37739;50.350;7.578;2023-01-26T01:14:40;100509.28;;;-0.07;86.62
47883;BME280;37739;50.350;7.578;2023-01-26T01:17:05;100501.84;;;-0.06;85.29
47883;BME280;37739;50.350;7.578;2023-01-26T01:19:33;100508.44;;;-0.16;85.90
47883;BME280;37739;50.350;7.578;2023-01-26T01:22:00;100490.78;;;-0.16;85.06
47883;BME280;37739;50.350;7.578;2023-01-26T01:24:26;100505.22;;;-0.24;84.72
47883;BME280;37739;50.350;7.578;2023-01-26T01:26:53;100495.94;;;-0.34;85.23
47883;BME280;37739;50.350;7.578;2023-01-26T01:29:19;100499.88;;;-0.27;86.60
47883;BME280;37739;50.350;7.578;2023-01-26T01:31:46;100499.78;;;-0.29;85.83
47883;BME280;37739;50.350;7.578;2023-01-26T01:34:12;100493.97;;;-0.28;85.65
47883;BME280;37739;50.350;7.578;2023-01-26T01:36:39;100490.28;;;-0.31;86.57
47883;BME280;37739;50.350;7.578;2023-01-26T01:39:05;100491.59;;;-0.26;86.30
47883;BME280;37739;50.350;7.578;2023-01-26T01:41:33;100494.91;;;-0.36;86.25
47883;BME280;37739;50.350;7.578;2023-01-26T01:44:19;100493.63;;;-0.22;86.17
47883;BME280;37739;50.350;7.578;2023-01-26T01:47:09;100499.06;;;-0.17;85.87
47883;BME280;37739;50.350;7.578;2023-01-26T01:49:41;100481.91;;;-0.22;86.34
47883;BME280;37739;50.350;7.578;2023-01-26T01:52:17;100485.72;;;-0.16;85.60
47883;BME280;37739;50.350;7.578;2023-01-26T01:54:48;100478.09;;;-0.27;85.51
47883;BME280;37739;50.350;7.578;2023-01-26T01:57:28;100489.41;;;-0.32;86.79
47883;BME280;37739;50.350;7.578;2023-01-26T02:00:03;100488.50;;;-0.32;86.67
47883;BME280;37739;50.350;7.578;2023-01-26T02:02:29;100487.00;;;-0.30;86.18
47883;BME280;37739;50.350;7.578;2023-01-26T02:04:58;100482.31;;;-0.36;86.21
47883;BME280;37739;50.350;7.578;2023-01-26T02:07:24;100472.03;;;-0.29;86.17
47883;BME280;37739;50.350;7.578;2023-01-26T02:09:53;100472.16;;;-0.08;87.20
47883;BME280;37739;50.350;7.578;2023-01-26T02:12:38;100462.09;;;-0.08;84.87
47883;BME280;37739;50.350;7.578;2023-01-26T02:15:03;100456.81;;;-0.20;85.86
47883;BME280;37739;50.350;7.578;2023-01-26T02:17:29;100450.28;;;-0.18;85.75
47883;BME280;37739;50.350;7.578;2023-01-26T02:20:03;100450.56;;;-0.15;86.02
47883;BME280;37739;50.350;7.578;2023-01-26T02:22:46;100453.13;;;-0.24;86.06
47883;BME280;37739;50.350;7.578;2023-01-26T02:28:14;100446.63;;;-0.49;86.93
47883;BME280;37739;50.350;7.578;2023-01-26T02:30:43;100443.00;;;-0.62;87.19
47883;BME280;37739;50.350;7.578;2023-01-26T02:33:16;100446.34;;;-0.52;87.07
47883;BME280;37739;50.350;7.578;2023-01-26T02:35:44;100438.22;;;-0.58;87.26
47883;BME280;37739;50.350;7.578;2023-01-26T02:38:09;100434.66;;;-0.52;86.59
47883;BME280;37739;50.350;7.578;2023-01-26T02:40:53;100430.50;;;-0.51;86.99
47883;BME280;37739;50.350;7.578;2023-01-26T02:43:20;100422.81;;;-0.34;86.38
47883;BME280;37739;50.350;7.578;2023-01-26T02:45:48;100418.09;;;-0.40;86.26
47883;BME280;37739;50.350;7.578;2023-01-26T02:48:16;100415.06;;;-0.27;86.99
47883;BME280;37739;50.350;7.578;2023-01-26T02:51:04;100417.69;;;-0.44;87.32
47883;BME280;37739;50.350;7.578;2023-01-26T02:53:29;100413.72;;;-0.51;87.66
47883;BME280;37739;50.350;7.578;2023-01-26T02:55:57;100417.41;;;-0.47;88.29
47883;BME280;37739;50.350;7.578;2023-01-26T02:58:25;100409.81;;;-0.38;87.13
47883;BME280;37739;50.350;7.578;2023-01-26T03:00:50;100422.78;;;-0.53;87.85
47883;BME280;37739;50.350;7.578;2023-01-26T03:03:24;100413.41;;;-0.45;88.59
47883;BME280;37739;50.350;7.578;2023-01-26T03:05:50;100408.03;;;-0.40;87.04
47883;BME280;37739;50.350;7.578;2023-01-26T03:08:16;100408.56;;;-0.33;86.58
47883;BME280;37739;50.350;7.578;2023-01-26T03:10:41;100405.56;;;-0.29;86.53
47883;BME280;37739;50.350;7.578;2023-01-26T03:13:07;100409.34;;;-0.34;86.40
47883;BME280;37739;50.350;7.578;2023-01-26T03:15:37;100408.03;;;-0.40;87.39
47883;BME280;37739;50.350;7.578;2023-01-26T03:18:17;100400.75;;;-0.36;86.51
47883;BME280;37739;50.350;7.578;2023-01-26T03:21:14;100404.44;;;-0.61;86.41
47883;BME280;37739;50.350;7.578;2023-01-26T03:23:58;100402.22;;;-0.57;86.13
47883;BME280;37739;50.350;7.578;2023-01-26T03:26:45;100400.97;;;-0.52;85.67
47883;BME280;37739;50.350;7.578;2023-01-26T03:29:30;100403.16;;;-0.47;85.30
47883;BME280;37739;50.350;7.578;2023-01-26T03:32:01;100405.91;;;-0.35;85.24
47883;BME280;37739;50.350;7.578;2023-01-26T03:34:26;100408.16;;;-0.38;85.38
47883;BME280;37739;50.350;7.578;2023-01-26T03:36:54;100405.50;;;-0.40;85.50
47883;BME280;37739;50.350;7.578;2023-01-26T03:39:22;100401.44;;;-0.29;84.43
47883;BME280;37739;50.350;7.578;2023-01-26T03:42:06;100393.25;;;-0.26;84.59
47883;BME280;37739;50.350;7.578;2023-01-26T03:44:50;100396.16;;;-0.22;84.00
47883;BME280;37739;50.350;7.578;2023-01-26T03:47:34;100394.06;;;-0.36;84.05
47883;BME280;37739;50.350;7.578;2023-01-26T03:50:21;100391.13;;;-0.22;84.16
47883;BME280;37739;50.350;7.578;2023-01-26T03:53:15;100390.38;;;-0.21;84.21
47883;BME280;37739;50.350;7.578;2023-01-26T03:56:00;100382.19;;;-0.37;84.14
47883;BME280;37739;50.350;7.578;2023-01-26T03:58:47;100380.00;;;-0.43;85.19
47883;BME280;37739;50.350;7.578;2023-01-26T04:01:13;100389.16;;;-0.34;84.55
47883;BME280;37739;50.350;7.578;2023-01-26T04:03:50;100387.53;;;-0.34;84.00
47883;BME280;37739;50.350;7.578;2023-01-26T04:06:35;100383.56;;;-0.22;83.83
47883;BME280;37739;50.350;7.578;2023-01-26T04:09:19;100381.47;;;-0.36;84.40
47883;BME280;37739;50.350;7.578;2023-01-26T04:11:45;100380.56;;;-0.36;84.58
47883;BME280;37739;50.350;7.578;2023-01-26T04:14:12;100384.91;;;-0.63;84.44
47883;BME280;37739;50.350;7.578;2023-01-26T04:16:57;100382.31;;;-0.54;85.18
47883;BME280;37739;50.350;7.578;2023-01-26T04:19:44;100378.38;;;-0.61;85.00
47883;BME280;37739;50.350;7.578;2023-01-26T04:22:28;100382.31;;;-0.54;84.80
47883;BME280;37739;50.350;7.578;2023-01-26T04:24:54;100379.47;;;-0.49;84.18
47883;BME280;37739;50.350;7.578;2023-01-26T04:27:21;100376.66;;;-0.33;84.26
47883;BME280;37739;50.350;7.578;2023-01-26T04:29:47;100373.69;;;-0.48;83.74
47883;BME280;37739;50.350;7.578;2023-01-26T04:32:14;100369.03;;;-0.62;83.45
47883;BME280;37739;50.350;7.578;2023-01-26T04:34:40;100377.53;;;-0.70;84.29
47883;BME280;37739;50.350;7.578;2023-01-26T04:37:05;100387.69;;;-0.60;84.82
47883;BME280;37739;50.350;7.578;2023-01-26T04:39:33;100382.31;;;-0.54;84.52
47883;BME280;37739;50.350;7.578;2023-01-26T04:41:58;100384.84;;;-0.54;83.91
47883;BME280;37739;50.350;7.578;2023-01-26T04:44:28;100391.31;;;-0.67;83.84
47883;BME280;37739;50.350;7.578;2023-01-26T04:46:55;100387.31;;;-0.73;84.19
47883;BME280;37739;50.350;7.578;2023-01-26T04:49:23;100382.09;;;-0.66;84.55
47883;BME280;37739;50.350;7.578;2023-01-26T04:51:48;100376.53;;;-0.81;83.90
47883;BME280;37739;50.350;7.578;2023-01-26T04:54:13;100378.56;;;-0.68;84.53
47883;BME280;37739;50.350;7.578;2023-01-26T04:56:38;100385.06;;;-0.62;84.39
47883;BME280;37739;50.350;7.578;2023-01-26T04:59:08;100380.81;;;-0.52;84.06
47883;BME280;37739;50.350;7.578;2023-01-26T05:01:33;100377.28;;;-0.54;83.94
47883;BME280;37739;50.350;7.578;2023-01-26T05:04:00;100373.59;;;-0.58;84.24
47883;BME280;37739;50.350;7.578;2023-01-26T05:06:26;100373.88;;;-0.55;83.73
47883;BME280;37739;50.350;7.578;2023-01-26T05:08:53;100374.00;;;-0.72;84.14
47883;BME280;37739;50.350;7.578;2023-01-26T05:11:21;100366.03;;;-0.58;84.85
47883;BME280;37739;50.350;7.578;2023-01-26T05:13:49;100362.09;;;-0.65;83.40
47883;BME280;37739;50.350;7.578;2023-01-26T05:16:14;100370.00;;;-0.79;84.32
47883;BME280;37739;50.350;7.578;2023-01-26T05:18:43;100360.78;;;-0.70;84.75
47883;BME280;37739;50.350;7.578;2023-01-26T05:21:13;100360.25;;;-0.57;84.38
47883;BME280;37739;50.350;7.578;2023-01-26T05:23:45;100361.28;;;-0.55;84.50
47883;BME280;37739;50.350;7.578;2023-01-26T05:26:11;100353.75;;;-0.64;84.38
47883;BME280;37739;50.350;7.578;2023-01-26T05:28:38;100362.63;;;-0.58;84.63
47883;BME280;37739;50.350;7.578;2023-01-26T05:31:06;100360.09;;;-0.58;84.17
47883;BME280;37739;50.350;7.578;2023-01-26T05:33:31;100362.38;;;-0.62;84.32
47883;BME280;37739;50.350;7.578;2023-01-26T05:36:04;100361.56;;;-0.80;83.79
47883;BME280;37739;50.350;7.578;2023-01-26T05:38:29;100364.91;;;-0.89;84.51
47883;BME280;37739;50.350;7.578;2023-01-26T05:40:57;100367.25;;;-0.91;84.35
47883;BME280;37739;50.350;7.578;2023-01-26T05:43:23;100375.53;;;-0.83;83.82
47883;BME280;37739;50.350;7.578;2023-01-26T05:45:51;100368.19;;;-0.90;84.12
47883;BME280;37739;50.350;7.578;2023-01-26T05:48:16;100369.22;;;-0.97;83.40
47883;BME280;37739;50.350;7.578;2023-01-26T05:50:42;100368.81;;;-1.02;83.71
47883;BME280;37739;50.350;7.578;2023-01-26T05:53:07;100370.31;;;-1.04;83.61
47883;BME280;37739;50.350;7.578;2023-01-26T05:55:32;100371.19;;;-1.03;83.71
47883;BME280;37739;50.350;7.578;2023-01-26T05:58:00;100372.03;;;-0.94;83.77
47883;BME280;37739;50.350;7.578;2023-01-26T06:00:26;100369.69;;;-1.01;83.08
47883;BME280;37739;50.350;7.578;2023-01-26T06:02:51;100378.06;;;-1.20;83.95
47883;BME280;37739;50.350;7.578;2023-01-26T06:05:18;100366.66;;;-1.16;84.55
47883;BME280;37739;50.350;7.578;2023-01-26T06:07:48;100374.00;;;-1.00;85.03
47883;BME280;37739;50.350;7.578;2023-01-26T06:10:17;100364.63;;;-0.92;83.25
47883;BME280;37739;50.350;7.578;2023-01-26T06:12:42;100369.47;;;-0.85;82.88
47883;BME280;37739;50.350;7.578;2023-01-26T06:15:08;100367.75;;;-0.95;83.06
47883;BME280;37739;50.350;7.578;2023-01-26T06:17:34;100364.03;;;-0.99;83.20
47883;BME280;37739;50.350;7.578;2023-01-26T06:19:59;100375.25;;;-0.86;83.43
47883;BME280;37739;50.350;7.578;2023-01-26T06:22:24;100379.34;;;-0.78;83.34
47883;BME280;37739;50.350;7.578;2023-01-26T06:24:52;100386.06;;;-0.87;83.25
47883;BME280;37739;50.350;7.578;2023-01-26T06:27:17;100381.72;;;-0.80;82.84
47883;BME280;37739;50.350;7.578;2023-01-26T06:29:43;100386.06;;;-0.87;82.49
47883;BME280;37739;50.350;7.578;2023-01-26T06:32:13;100382.28;;;-1.01;83.39
47883;BME280;37739;50.350;7.578;2023-01-26T06:34:38;100387.72;;;-0.88;83.47
47883;BME280;37739;50.350;7.578;2023-01-26T06:37:06;100391.03;;;-1.06;83.93
47883;BME280;37739;50.350;7.578;2023-01-26T06:39:32;100390.16;;;-1.07;83.74
47883;BME280;37739;50.350;7.578;2023-01-26T06:41:57;100391.81;;;-1.07;83.28
47883;BME280;37739;50.350;7.578;2023-01-26T06:44:23;100391.03;;;-0.97;84.01
47883;BME280;37739;50.350;7.578;2023-01-26T06:46:48;100397.63;;;-0.89;83.00
47883;BME280;37739;50.350;7.578;2023-01-26T06:49:13;100404.31;;;-0.90;83.48
47883;BME280;37739;50.350;7.578;2023-01-26T06:51:44;100395.97;;;-1.08;83.83
47883;BME280;37739;50.350;7.578;2023-01-26T06:54:14;100398.09;;;-0.93;84.04
47883;BME280;37739;50.350;7.578;2023-01-26T06:56:41;100397.28;;;-0.75;83.49
47883;BME280;37739;50.350;7.578;2023-01-26T06:59:07;100400.53;;;-0.76;82.42
47883;BME280;37739;50.350;7.578;2023-01-26T07:01:37;100395.97;;;-0.80;82.54
47883;BME280;37739;50.350;7.578;2023-01-26T07:04:03;100389.63;;;-0.85;83.05
47883;BME280;37739;50.350;7.578;2023-01-26T07:06:28;100395.28;;;-0.88;83.43
47883;BME280;37739;50.350;7.578;2023-01-26T07:08:56;100393.47;;;-0.89;83.79
47883;BME280;37739;50.350;7.578;2023-01-26T07:11:24;100391.91;;;-0.97;83.86
47883;BME280;37739;50.350;7.578;2023-01-26T07:13:50;100394.31;;;-1.07;84.90
47883;BME280;37739;50.350;7.578;2023-01-26T07:16:18;100406.00;;;-0.99;84.60
47883;BME280;37739;50.350;7.578;2023-01-26T07:18:43;100400.81;;;-1.01;84.66
47883;BME280;37739;50.350;7.578;2023-01-26T07:21:10;100400.34;;;-0.96;85.46
47883;BME280;37739;50.350;7.578;2023-01-26T07:23:36;100403.13;;;-0.85;84.54
47883;BME280;37739;50.350;7.578;2023-01-26T07:26:02;100404.00;;;-0.84;85.05
47883;BME280;37739;50.350;7.578;2023-01-26T07:28:28;100406.69;;;-0.91;85.08
47883;BME280;37739;50.350;7.578;2023-01-26T07:30:58;100413.00;;;-0.77;85.32
47883;BME280;37739;50.350;7.578;2023-01-26T07:33:24;100414.72;;;-0.68;84.65
47883;BME280;37739;50.350;7.578;2023-01-26T07:35:53;100413.00;;;-0.77;84.98
47883;BME280;37739;50.350;7.578;2023-01-26T07:38:18;100404.97;;;-0.73;84.48
47883;BME280;37739;50.350;7.578;2023-01-26T07:40:49;100412.84;;;-0.79;84.87
47883;BME280;37739;50.350;7.578;2023-01-26T07:43:16;100414.78;;;-0.76;85.04
47883;BME280;37739;50.350;7.578;2023-01-26T07:45:48;100420.59;;;-0.86;85.61
47883;BME280;37739;50.350;7.578;2023-01-26T07:48:21;100419.38;;;-0.81;85.91
47883;BME280;37739;50.350;7.578;2023-01-26T07:50:50;100431.41;;;-0.87;86.51
47883;BME280;37739;50.350;7.578;2023-01-26T07:53:16;100428.75;;;-0.89;86.99
47883;BME280;37739;50.350;7.578;2023-01-26T07:55:44;100423.84;;;-0.87;87.61
47883;BME280;37739;50.350;7.578;2023-01-26T07:58:10;100433.00;;;-0.79;87.43
47883;BME280;37739;50.350;7.578;2023-01-26T08:00:37;100432.50;;;-0.94;88.11
47883;BME280;37739;50.350;7.578;2023-01-26T08:03:06;100442.81;;;-0.82;88.39
47883;BME280;37739;50.350;7.578;2023-01-26T08:05:34;100438.25;;;-0.86;88.96
47883;BME280;37739;50.350;7.578;2023-01-26T08:08:01;100441.03;;;-0.83;89.73
47883;BME280;37739;50.350;7.578;2023-01-26T08:10:27;100435.44;;;-0.89;90.27
47883;BME280;37739;50.350;7.578;2023-01-26T08:12:57;100437.44;;;-0.76;90.44
47883;BME280;37739;50.350;7.578;2023-01-26T08:15:23;100438.63;;;-0.73;89.70
47883;BME280;37739;50.350;7.578;2023-01-26T08:17:49;100430.91;;;-0.74;90.29
47883;BME280;37739;50.350;7.578;2023-01-26T08:20:14;100441.88;;;-0.74;89.99
47883;BME280;37739;50.350;7.578;2023-01-26T08:22:39;100439.50;;;-0.72;89.70
47883;BME280;37739;50.350;7.578;2023-01-26T08:25:05;100436.44;;;-0.78;90.67
47883;BME280;37739;50.350;7.578;2023-01-26T08:27:33;100441.59;;;-0.77;90.79
47883;BME280;37739;50.350;7.578;2023-01-26T08:29:58;100430.44;;;-0.70;91.23
47883;BME280;37739;50.350;7.578;2023-01-26T08:32:27;100436.75;;;-0.56;90.66
47883;BME280;37739;50.350;7.578;2023-01-26T08:34:55;100433.56;;;-0.45;90.13
47883;BME280;37739;50.350;7.578;2023-01-26T08:37:25;100438.31;;;-0.48;89.75
47883;BME280;37739;50.350;7.578;2023-01-26T08:39:51;100438.94;;;-0.51;89.69
47883;BME280;37739;50.350;7.578;2023-01-26T08:42:16;100436.88;;;-0.55;89.84
47883;BME280;37739;50.350;7.578;2023-01-26T08:44:43;100435.38;;;-0.53;90.50
47883;BME280;37739;50.350;7.578;2023-01-26T08:47:11;100439.41;;;-0.55;90.63
47883;BME280;37739;50.350;7.578;2023-01-26T08:49:36;100439.63;;;-0.43;90.75
47883;BME280;37739;50.350;7.578;2023-01-26T08:52:04;100437.06;;;-0.34;90.03
47883;BME280;37739;50.350;7.578;2023-01-26T08:54:29;100435.13;;;-0.37;89.95
47883;BME280;37739;50.350;7.578;2023-01-26T08:56:54;100442.84;;;-0.35;89.96
47883;BME280;37739;50.350;7.578;2023-01-26T08:59:24;100429.06;;;-0.39;89.91
47883;BME280;37739;50.350;7.578;2023-01-26T09:01:52;100436.38;;;-0.42;90.15
47883;BME280;37739;50.350;7.578;2023-01-26T09:04:22;100435.19;;;-0.46;90.23
47883;BME280;37739;50.350;7.578;2023-01-26T09:06:47;100437.72;;;-0.46;91.08
47883;BME280;37739;50.350;7.578;2023-01-26T09:09:15;100444.13;;;-0.49;90.75
47883;BME280;37739;50.350;7.578;2023-01-26T09:11:40;100446.09;;;-0.55;91.11
47883;BME280;37739;50.350;7.578;2023-01-26T09:14:08;100445.53;;;-0.43;92.38
47883;BME280;37739;50.350;7.578;2023-01-26T09:16:38;100453.34;;;-0.31;91.11
47883;BME280;37739;50.350;7.578;2023-01-26T09:19:03;100448.03;;;-0.34;91.16
47883;BME280;37739;50.350;7.578;2023-01-26T09:21:30;100448.03;;;-0.34;90.64
47883;BME280;37739;50.350;7.578;2023-01-26T09:23:56;100447.06;;;-0.26;91.04
47883;BME280;37739;50.350;7.578;2023-01-26T09:26:23;100445.88;;;-0.21;90.56
47883;BME280;37739;50.350;7.578;2023-01-26T09:28:50;100450.28;;;-0.18;90.23
47883;BME280;37739;50.350;7.578;2023-01-26T09:31:16;100446.81;;;-0.10;90.63
47883;BME280;37739;50.350;7.578;2023-01-26T09:33:41;100452.56;;;-0.21;89.79
47883;BME280;37739;50.350;7.578;2023-01-26T09:36:09;100461.63;;;-0.23;90.12
47883;BME280;37739;50.350;7.578;2023-01-26T09:38:34;100461.31;;;-0.26;90.92
47883;BME280;37739;50.350;7.578;2023-01-26T09:53:57;100462.19;;;-0.26;91.75
47883;BME280;37739;50.350;7.578;2023-01-26T09:56:27;100454.38;;;-0.29;92.39
47883;BME280;37739;50.350;7.578;2023-01-26T09:58:59;100458.63;;;-0.19;91.88
47883;BME280;37739;50.350;7.578;2023-01-26T10:01:35;100452.22;;;-0.15;91.89
47883;BME280;37739;50.350;7.578;2023-01-26T10:04:12;100445.53;;;-0.15;91.75
47883;BME280;37739;50.350;7.578;2023-01-26T10:06:41;100440.53;;;-0.05;91.73
47883;BME280;37739;50.350;7.578;2023-01-26T10:11:48;100440.88;;;-0.10;90.88
47883;BME280;37739;50.350;7.578;2023-01-26T10:16:47;100439.84;;;-0.12;91.18
47883;BME280;37739;50.350;7.578;2023-01-26T10:21:54;100434.75;;;-0.04;91.27
47883;BME280;37739;50.350;7.578;2023-01-26T10:24:21;100439.00;;;0.06;91.34
47883;BME280;37739;50.350;7.578;2023-01-26T10:26:49;100435.66;;;-0.03;90.94
47883;BME280;37739;50.350;7.578;2023-01-26T10:29:19;100426.38;;;-0.13;90.96
47883;BME280;37739;50.350;7.578;2023-01-26T10:31:47;100430.13;;;0.01;91.21
47883;BME280;37739;50.350;7.578;2023-01-26T10:34:22;100422.22;;;0.07;91.01
47883;BME280;37739;50.350;7.578;2023-01-26T10:36:48;100414.53;;;0.15;90.81
47883;BME280;37739;50.350;7.578;2023-01-26T10:39:16;100415.31;;;0.14;90.36
47883;BME280;37739;50.350;7.578;2023-01-26T10:41:59;100414.44;;;0.14;90.75
47883;BME280;37739;50.350;7.578;2023-01-26T10:44:32;100422.22;;;0.07;90.35
47883;BME280;37739;50.350;7.578;2023-01-26T10:49:37;100432.38;;;-0.21;90.75
47883;BME280;37739;50.350;7.578;2023-01-26T10:52:07;100424.34;;;-0.17;91.50
47883;BME280;37739;50.350;7.578;2023-01-26T10:54:32;100423.66;;;-0.06;91.92
47883;BME280;37739;50.350;7.578;2023-01-26T10:57:04;100417.50;;;0.01;91.06
47883;BME280;37739;50.350;7.578;2023-01-26T10:59:40;100421.56;;;0.09;91.54
47883;BME280;37739;50.350;7.578;2023-01-26T11:04:36;100413.81;;;-0.03;90.82
47883;BME280;37739;50.350;7.578;2023-01-26T11:07:25;100414.69;;;-0.02;90.16
47883;BME280;37739;50.350;7.578;2023-01-26T11:09:52;100407.69;;;0.04;90.97
47883;BME280;37739;50.350;7.578;2023-01-26T11:12:24;100402.31;;;0.10;90.46
47883;BME280;37739;50.350;7.578;2023-01-26T11:15:05;100401.41;;;-0.10;91.04
47883;BME280;37739;50.350;7.578;2023-01-26T11:23:12;100396.25;;;-0.11;91.29
47883;BME280;37739;50.350;7.578;2023-01-26T11:25:50;100393.50;;;-0.04;90.80
47883;BME280;37739;50.350;7.578;2023-01-26T11:31:24;100388.34;;;-0.25;90.41
47883;BME280;37739;50.350;7.578;2023-01-26T11:45:52;100374.47;;;-0.01;89.57
47883;BME280;37739;50.350;7.578;2023-01-26T11:54:28;100361.28;;;0.02;89.86
47883;BME280;37739;50.350;7.578;2023-01-26T11:59:41;100356.09;;;0.01;89.60
47883;BME280;37739;50.350;7.578;2023-01-26T12:02:30;100352.50;;;0.17;89.47
47883;BME280;37739;50.350;7.578;2023-01-26T12:05:01;100348.28;;;0.08;89.02
47883;BME280;37739;50.350;7.578;2023-01-26T12:07:32;100339.91;;;0.17;89.58
47883;BME280;37739;50.350;7.578;2023-01-26T12:10:22;100334.47;;;0.23;90.22
47883;BME280;37739;50.350;7.578;2023-01-26T12:12:59;100340.41;;;0.24;89.04
47883;BME280;37739;50.350;7.578;2023-01-26T12:15:38;100337.78;;;0.32;89.17
47883;BME280;37739;50.350;7.578;2023-01-26T12:20:54;100334.75;;;0.26;88.91
47883;BME280;37739;50.350;7.578;2023-01-26T12:25:51;100325.94;;;0.31;88.46
47883;BME280;37739;50.350;7.578;2023-01-26T12:33:27;100302.88;;;0.37;88.65
47883;BME280;37739;50.350;7.578;2023-01-26T12:49:45;100292.84;;;0.28;88.37
47883;BME280;37739;50.350;7.578;2023-01-26T12:52:18;100295.88;;;0.24;88.29
47883;BME280;37739;50.350;7.578;2023-01-26T12:57:33;100286.81;;;0.36;87.78
47883;BME280;37739;50.350;7.578;2023-01-26T13:00:17;100284.44;;;0.38;88.44
47883;BME280;37739;50.350;7.578;2023-01-26T13:02:45;100288.56;;;0.27;88.28
47883;BME280;37739;50.350;7.578;2023-01-26T13:05:25;100296.16;;;0.27;88.72
47883;BME280;37739;50.350;7.578;2023-01-26T13:07:53;100289.31;;;0.26;88.34
47883;BME280;37739;50.350;7.578;2023-01-26T13:10:23;100288.31;;;0.24;88.33
47883;BME280;37739;50.350;7.578;2023-01-26T13:12:59;100286.44;;;0.32;89.24
47883;BME280;37739;50.350;7.578;2023-01-26T13:15:29;100289.19;;;0.25;89.30
47883;BME280;37739;50.350;7.578;2023-01-26T13:18:03;100288.69;;;0.29;89.89
47883;BME280;37739;50.350;7.578;2023-01-26T13:20:46;100292.78;;;0.37;89.47
47883;BME280;37739;50.350;7.578;2023-01-26T13:28:36;100282.31;;;0.43;89.12
47883;BME280;37739;50.350;7.578;2023-01-26T13:31:05;100286.28;;;0.30;89.76
47883;BME280;37739;50.350;7.578;2023-01-26T13:33:33;100285.31;;;0.38;90.26
47883;BME280;37739;50.350;7.578;2023-01-26T13:36:02;100279.88;;;0.34;89.42
47883;BME280;37739;50.350;7.578;2023-01-26T13:38:33;100289.97;;;0.34;89.98
47883;BME280;37739;50.350;7.578;2023-01-26T13:41:06;100289.25;;;0.45;89.66
47883;BME280;37739;50.350;7.578;2023-01-26T13:43:36;100293.00;;;0.40;89.74
47883;BME280;37739;50.350;7.578;2023-01-26T13:46:55;100286.81;;;0.36;90.32
47883;BME280;37739;50.350;7.578;2023-01-26T13:49:35;100289.97;;;0.34;89.94
47883;BME280;37739;50.350;7.578;2023-01-26T13:52:02;100285.69;;;0.33;90.66
47883;BME280;37739;50.350;7.578;2023-01-26T13:54:31;100281.75;;;0.36;90.40
47883;BME280;37739;50.350;7.578;2023-01-26T13:57:04;100287.94;;;0.30;90.70
47883;BME280;37739;50.350;7.578;2023-01-26T13:59:32;100284.78;;;0.32;90.31
47883;BME280;37739;50.350;7.578;2023-01-26T14:02:00;100283.78;;;0.30;90.68
47883;BME280;37739;50.350;7.578;2023-01-26T14:04:30;100296.25;;;0.29;91.01
47883;BME280;37739;50.350;7.578;2023-01-26T14:07:02;100286.06;;;0.37;91.00
47883;BME280;37739;50.350;7.578;2023-01-26T14:09:39;100290.41;;;0.49;90.63
47883;BME280;37739;50.350;7.578;2023-01-26T14:12:16;100294.56;;;0.48;90.47
47883;BME280;37739;50.350;7.578;2023-01-26T14:14:46;100301.22;;;0.48;90.13
47883;BME280;37739;50.350;7.578;2023-01-26T14:19:50;100298.69;;;0.37;90.27
47883;BME280;37739;50.350;7.578;2023-01-26T14:22:16;100300.34;;;0.37;90.26
47883;BME280;37739;50.350;7.578;2023-01-26T14:24:47;100297.69;;;0.35;90.73
47883;BME280;37739;50.350;7.578;2023-01-26T14:29:53;100296.03;;;0.36;91.73
47883;BME280;37739;50.350;7.578;2023-01-26T14:32:18;100297.09;;;0.48;91.54
47883;BME280;37739;50.350;7.578;2023-01-26T14:34:58;100299.13;;;0.52;91.62
47883;BME280;37739;50.350;7.578;2023-01-26T14:37:29;100298.72;;;0.48;90.55
47883;BME280;37739;50.350;7.578;2023-01-26T14:40:20;100301.59;;;0.42;91.06
47883;BME280;37739;50.350;7.578;2023-01-26T14:42:47;100307.41;;;0.41;91.70